KFMH/FMH METAR and TAF weather

Enter ICAO airport designator
Station Type Date Time Source
KFMH METAR 2021/08/02 01:45 UTC NOAA

KFMH 020145Z 00000KT 10SM BKN100 19/14 A2989


Station Type Date Time Source
KFMH Decoded METAR 2021/08/02 01:45 UTC NOAA

Otis Air National Guard Base, MA, United States (KFMH) 41-39N 070-31W
Aug 01, 2021 - 09:45 PM EDT / 2021.08.02 0145 UTC
Wind: Calm:0
Visibility: 10 mile(s):0
Sky conditions: mostly cloudy
Temperature: 66 F (19 C)
Dew Point: 57 F (14 C)
Relative Humidity: 72%
Pressure (altimeter): 29.89 in. Hg (1012 hPa)
ob: KFMH 020145Z 00000KT 10SM BKN100 19/14 A2989
cycle: 2

Station Type Date Time Source
KFMH TAF 2021/08/02 02:52 UTC NOAA

TAF
AMD KFMH 020150Z 0202/0224 15006KT P6SM VCSH SCT060 BKN100
FM020600 VRB03KT P6SM VCSH SCT060 BKN100
FM021200 33005KT P6SM SCT035 SCT060
FM021600 25008KT P6SM SCT035 SCT060
FM022100 21007KT P6SM SCT060

Example: see airport list